createdAt,value
2022-09-23T00:01:14.292Z,78.50
2022-09-23T00:03:42.948Z,78.70
2022-09-23T00:06:12.456Z,79.10
2022-09-23T00:08:40.591Z,79.60
2022-09-23T00:11:10.258Z,79.80
2022-09-23T00:13:38.336Z,80.10
2022-09-23T00:16:08.190Z,80.30
2022-09-23T00:18:35.216Z,80.40
2022-09-23T00:21:06.596Z,80.40
2022-09-23T00:23:34.185Z,80.40
2022-09-23T00:26:03.142Z,80.40
2022-09-23T00:28:31.006Z,80.40
2022-09-23T00:31:01.862Z,80.70
2022-09-23T00:33:29.918Z,80.70
2022-09-23T00:36:01.978Z,80.80
2022-09-23T00:38:29.171Z,80.90
2022-09-23T00:40:56.328Z,80.90
2022-09-23T00:43:41.677Z,80.90
2022-09-23T00:46:12.721Z,81.00
2022-09-23T00:48:43.111Z,80.90
2022-09-23T00:51:14.856Z,80.80
2022-09-23T00:53:42.049Z,80.60
2022-09-23T00:56:11.990Z,80.60
2022-09-23T00:58:41.949Z,80.70
2022-09-23T01:01:09.067Z,80.70
2022-09-23T01:03:36.012Z,80.90
2022-09-23T01:06:03.008Z,81.00
2022-09-23T01:08:31.236Z,81.10
2022-09-23T01:11:35.169Z,81.00
2022-09-23T01:14:34.427Z,81.20
2022-09-23T01:17:23.671Z,81.20
2022-09-23T01:20:02.902Z,81.00
2022-09-23T01:22:40.902Z,80.90
2022-09-23T01:25:33.866Z,80.90
2022-09-23T01:28:38.971Z,81.10
2022-09-23T01:31:09.020Z,81.20
2022-09-23T01:33:59.878Z,81.30
2022-09-23T01:36:29.809Z,81.50
2022-09-23T01:39:09.836Z,81.70
2022-09-23T01:42:17.389Z,81.90
2022-09-23T01:44:57.537Z,82.10
2022-09-23T01:47:38.827Z,82.10
2022-09-23T01:50:29.699Z,82.20
2022-09-23T01:53:01.859Z,82.30
2022-09-23T01:55:33.697Z,82.50
2022-09-23T01:58:27.456Z,82.50
2022-09-23T02:01:01.427Z,82.50
2022-09-23T02:03:55.231Z,82.50
2022-09-23T02:06:32.201Z,83.10
2022-09-23T02:09:03.544Z,82.40
2022-09-23T02:11:36.377Z,82.50
2022-09-23T02:14:16.983Z,82.50
2022-09-23T02:16:50.062Z,82.50
2022-09-23T02:19:28.316Z,82.50
2022-09-23T02:22:03.703Z,82.80
2022-09-23T02:24:34.686Z,83.00
2022-09-23T02:27:35.125Z,83.10
2022-09-23T02:30:05.143Z,83.20
2022-09-23T02:33:08.578Z,83.10
2022-09-23T02:35:44.539Z,83.20
2022-09-23T02:38:39.138Z,83.30
2022-09-23T02:41:15.026Z,83.20
2022-09-23T02:43:45.255Z,83.00
2022-09-23T02:46:12.523Z,83.00
2022-09-23T02:48:49.222Z,82.80
2022-09-23T02:51:16.498Z,82.90
2022-09-23T02:53:43.768Z,82.90
2022-09-23T02:56:16.209Z,83.10
2022-09-23T02:58:44.011Z,83.40
2022-09-23T03:01:31.455Z,83.50
2022-09-23T03:04:16.211Z,83.80
2022-09-23T03:07:03.423Z,84.10
2022-09-23T03:09:35.798Z,84.30
2022-09-23T03:12:32.398Z,84.50
2022-09-23T03:15:15.539Z,84.70
2022-09-23T03:18:09.015Z,84.60
2022-09-23T03:20:44.711Z,85.20
2022-09-23T03:23:15.219Z,84.50
2022-09-23T03:25:45.840Z,84.40
2022-09-23T03:28:14.836Z,84.50
2022-09-23T03:30:43.574Z,84.70
2022-09-23T03:33:15.530Z,84.80
2022-09-23T03:36:15.774Z,84.80
2022-09-23T03:38:51.065Z,84.90
2022-09-23T03:41:28.938Z,84.80
2022-09-23T03:43:58.661Z,84.70
2022-09-23T03:46:30.199Z,84.80
2022-09-23T03:49:04.223Z,84.90
2022-09-23T03:51:31.231Z,84.80
2022-09-23T03:53:58.143Z,84.70
2022-09-23T03:56:25.086Z,84.70
2022-09-23T03:58:52.034Z,84.70
2022-09-23T04:01:19.032Z,84.60
2022-09-23T04:03:46.061Z,84.40
2022-09-23T04:06:13.395Z,84.30
2022-09-23T04:08:40.448Z,84.20
2022-09-23T04:11:07.778Z,84.80
2022-09-23T04:13:34.741Z,84.10
2022-09-23T04:16:02.003Z,84.10
2022-09-23T04:18:29.032Z,84.10
2022-09-23T04:21:02.601Z,84.10
2022-09-23T04:23:29.923Z,84.00
2022-09-23T04:25:57.089Z,83.90
2022-09-23T04:28:24.120Z,84.00
2022-09-23T04:30:51.750Z,84.10
2022-09-23T04:33:18.669Z,84.00
2022-09-23T04:35:50.749Z,84.70
2022-09-23T04:38:19.060Z,84.00
2022-09-23T04:40:46.187Z,84.00
2022-09-23T04:43:14.819Z,84.00
2022-09-23T04:45:42.633Z,84.00
2022-09-23T04:48:10.698Z,84.00
2022-09-23T04:50:37.835Z,83.90
2022-09-23T04:53:05.904Z,83.90
2022-09-23T04:55:32.883Z,84.10
2022-09-23T04:57:59.861Z,84.20
2022-09-23T05:00:28.674Z,84.20
2022-09-23T05:02:55.801Z,84.30
2022-09-23T05:05:24.217Z,84.30
2022-09-23T05:07:54.691Z,84.30
2022-09-23T05:10:22.517Z,84.20
2022-09-23T05:12:52.464Z,84.10
2022-09-23T05:15:21.944Z,84.10
2022-09-23T05:17:48.921Z,83.90
2022-09-23T05:20:16.112Z,83.90
2022-09-23T05:22:43.037Z,83.90
2022-09-23T05:25:10.061Z,83.90
2022-09-23T05:27:37.015Z,83.90
2022-09-23T05:30:04.184Z,83.90
2022-09-23T05:32:31.793Z,83.90
2022-09-23T05:34:58.762Z,84.00
2022-09-23T05:37:25.777Z,84.00
2022-09-23T05:39:52.731Z,84.20
2022-09-23T05:42:21.000Z,84.30
2022-09-23T05:44:48.021Z,84.30
2022-09-23T05:47:14.982Z,84.10
2022-09-23T05:49:58.487Z,84.10
2022-09-23T05:52:26.023Z,83.70
2022-09-23T05:54:53.399Z,83.50
2022-09-23T05:57:21.458Z,83.30
2022-09-23T05:59:48.578Z,83.00
2022-09-23T06:02:15.770Z,82.50
2022-09-23T06:04:43.261Z,82.30
2022-09-23T06:07:10.576Z,82.00
2022-09-23T06:09:37.786Z,81.70
2022-09-23T06:12:06.389Z,81.40
2022-09-23T06:14:33.727Z,81.30
2022-09-23T06:17:00.722Z,81.20
2022-09-23T06:19:27.696Z,81.30
2022-09-23T06:21:54.652Z,81.20
2022-09-23T06:24:26.005Z,80.90
2022-09-23T06:26:56.910Z,80.70
2022-09-23T06:29:24.388Z,80.50
2022-09-23T06:31:51.373Z,80.20
2022-09-23T06:34:19.774Z,80.00
2022-09-23T06:36:47.506Z,79.80
2022-09-23T06:39:15.461Z,79.50
2022-09-23T06:41:43.402Z,79.40
2022-09-23T06:44:16.968Z,79.10
2022-09-23T06:46:44.440Z,78.80
2022-09-23T06:49:12.213Z,78.40
2022-09-23T06:51:40.251Z,78.30
2022-09-23T06:54:07.460Z,78.20
2022-09-23T06:56:38.756Z,77.90
2022-09-23T06:59:09.833Z,77.40
2022-09-23T07:01:36.944Z,77.10
2022-09-23T07:04:04.087Z,76.60
2022-09-23T07:06:31.089Z,76.20
2022-09-23T07:08:58.029Z,76.00
2022-09-23T07:11:24.974Z,75.90
2022-09-23T07:13:52.135Z,75.80
2022-09-23T07:16:19.152Z,75.90
2022-09-23T07:18:47.099Z,75.70
2022-09-23T07:21:17.008Z,75.60
2022-09-23T07:23:50.196Z,76.20
2022-09-23T07:26:19.224Z,75.60
2022-09-23T07:28:46.428Z,75.20
2022-09-23T07:31:28.514Z,74.60
2022-09-23T07:34:02.675Z,74.30
2022-09-23T07:36:32.936Z,73.80
2022-09-23T07:39:03.935Z,73.40
2022-09-23T07:41:32.502Z,72.70
2022-09-23T07:44:00.642Z,71.80
2022-09-23T07:46:30.723Z,71.10
2022-09-23T07:48:58.164Z,70.40
2022-09-23T07:51:31.919Z,70.00
2022-09-23T07:54:02.036Z,69.30
2022-09-23T07:56:30.091Z,68.50
2022-09-23T07:59:01.737Z,67.70
2022-09-23T08:01:32.647Z,67.10
2022-09-23T08:04:21.539Z,66.50
2022-09-23T08:06:51.039Z,65.60
2022-09-23T08:09:19.663Z,65.00
2022-09-23T08:11:46.630Z,64.70
2022-09-23T08:14:15.466Z,64.10
2022-09-23T08:16:42.793Z,63.30
2022-09-23T08:19:09.921Z,62.70
2022-09-23T08:21:39.354Z,62.00
2022-09-23T08:24:14.019Z,61.60
2022-09-23T08:26:41.457Z,60.70
2022-09-23T08:29:11.250Z,60.50
2022-09-23T08:31:38.271Z,60.00
2022-09-23T08:34:06.708Z,59.60
2022-09-23T08:36:34.356Z,58.80
2022-09-23T08:39:01.604Z,57.90
2022-09-23T08:42:04.879Z,57.40
2022-09-23T08:44:53.335Z,56.70
2022-09-23T08:47:40.416Z,56.40
2022-09-23T08:50:26.719Z,56.90
2022-09-23T08:53:03.313Z,55.90
2022-09-23T08:55:39.451Z,56.20
2022-09-23T08:58:28.141Z,55.00
2022-09-23T09:01:26.501Z,55.00
2022-09-23T09:03:58.069Z,54.80
2022-09-23T09:06:53.201Z,54.70
2022-09-23T09:09:32.266Z,55.20
2022-09-23T09:12:25.616Z,53.40
2022-09-23T09:15:03.416Z,53.60
2022-09-23T09:17:39.756Z,53.60
2022-09-23T09:20:06.887Z,53.40
2022-09-23T09:22:49.142Z,53.10
2022-09-23T09:25:44.697Z,51.60
2022-09-23T09:28:22.811Z,51.80
2022-09-23T09:30:56.504Z,52.00
2022-09-23T09:33:51.585Z,52.60
2022-09-23T09:36:42.317Z,52.90
2022-09-23T09:39:13.676Z,52.90
2022-09-23T09:41:50.562Z,52.50
2022-09-23T09:44:37.168Z,51.60
2022-09-23T09:47:19.231Z,51.20
2022-09-23T09:49:51.708Z,50.60
2022-09-23T09:52:29.829Z,49.30
2022-09-23T09:55:15.374Z,47.70
2022-09-23T09:58:05.865Z,49.40
2022-09-23T10:00:42.776Z,48.90
2022-09-23T10:03:13.463Z,48.80
2022-09-23T10:05:46.644Z,50.00
2022-09-23T10:08:37.600Z,49.80
2022-09-23T10:11:18.896Z,49.30
2022-09-23T10:14:18.159Z,48.40
2022-09-23T10:16:48.641Z,47.30
2022-09-23T10:19:26.139Z,47.90
2022-09-23T10:22:00.231Z,48.70
2022-09-23T10:24:32.298Z,48.30
2022-09-23T10:27:09.579Z,48.50
2022-09-23T10:29:50.660Z,47.90
2022-09-23T10:32:20.543Z,45.40
2022-09-23T10:34:53.179Z,46.40
2022-09-23T10:37:32.075Z,46.80
2022-09-23T10:40:18.690Z,45.70
2022-09-23T10:43:25.509Z,46.10
2022-09-23T10:46:17.405Z,46.10
2022-09-23T10:49:31.066Z,45.00
2022-09-23T10:52:09.495Z,44.50
2022-09-23T10:54:42.065Z,45.10
2022-09-23T10:57:42.778Z,45.10
2022-09-23T11:00:37.881Z,45.40
2022-09-23T11:03:18.425Z,45.80
2022-09-23T11:05:51.416Z,45.40
2022-09-23T11:08:37.514Z,44.60
2022-09-23T11:11:14.008Z,44.10
2022-09-23T11:14:07.774Z,43.70
2022-09-23T11:16:57.982Z,43.90
2022-09-23T11:19:32.645Z,44.00
2022-09-23T11:22:14.113Z,43.50
2022-09-23T11:25:25.663Z,43.50
2022-09-23T11:28:39.905Z,41.80
2022-09-23T11:31:27.709Z,42.90
2022-09-23T11:34:34.203Z,43.20
2022-09-23T11:37:20.397Z,44.00
2022-09-23T11:39:56.445Z,43.70
2022-09-23T11:42:31.206Z,43.30
2022-09-23T11:45:15.878Z,42.90
2022-09-23T11:47:50.004Z,42.90
2022-09-23T11:50:40.381Z,42.90
2022-09-23T11:53:17.480Z,42.90
2022-09-23T11:55:57.279Z,42.60
2022-09-23T11:58:53.498Z,42.50
2022-09-23T12:01:37.662Z,41.70
2022-09-23T12:04:24.272Z,42.50
2022-09-23T12:07:09.638Z,42.20
2022-09-23T12:09:58.073Z,41.30
2022-09-23T12:12:49.648Z,41.50
2022-09-23T12:15:50.699Z,40.90
2022-09-23T12:18:26.669Z,39.60
2022-09-23T12:21:27.493Z,39.70
2022-09-23T12:24:19.403Z,39.00
2022-09-23T12:26:52.511Z,39.80
2022-09-23T12:29:20.242Z,40.80
2022-09-23T12:31:48.235Z,41.20
2022-09-23T12:34:34.411Z,40.80
2022-09-23T12:37:04.054Z,40.60
2022-09-23T12:39:37.324Z,39.10
2022-09-23T12:42:17.389Z,39.40
2022-09-23T12:44:47.339Z,38.80
2022-09-23T12:47:28.052Z,38.30
2022-09-23T12:49:58.613Z,39.00
2022-09-23T12:52:28.115Z,38.70
2022-09-23T12:55:18.958Z,39.20
2022-09-23T12:57:46.099Z,39.60
2022-09-23T13:00:23.727Z,38.80
2022-09-23T13:03:10.602Z,39.50
2022-09-23T13:06:11.882Z,38.30
2022-09-23T13:08:41.918Z,38.90
2022-09-23T13:11:21.967Z,38.90
2022-09-23T13:13:50.888Z,38.70
2022-09-23T13:16:31.335Z,39.00
2022-09-23T13:19:02.604Z,39.00
2022-09-23T13:21:45.779Z,38.40
2022-09-23T13:24:31.267Z,38.30
2022-09-23T13:27:28.129Z,39.00
2022-09-23T13:30:04.102Z,39.10
2022-09-23T13:32:44.859Z,38.90
2022-09-23T13:35:16.870Z,38.60
2022-09-23T13:37:48.804Z,39.30
2022-09-23T13:40:24.933Z,39.80
2022-09-23T13:42:58.531Z,40.20
2022-09-23T13:45:27.589Z,39.80
2022-09-23T13:47:59.615Z,39.10
2022-09-23T13:50:29.521Z,39.00
2022-09-23T13:53:02.814Z,38.80
2022-09-23T13:55:37.519Z,39.30
2022-09-23T13:58:20.960Z,39.50
2022-09-23T14:00:49.274Z,40.10
2022-09-23T14:03:37.662Z,39.90
2022-09-23T14:06:16.486Z,39.30
2022-09-23T14:08:49.812Z,40.00
2022-09-23T14:11:23.965Z,40.30
2022-09-23T14:13:55.375Z,40.00
2022-09-23T14:16:26.439Z,40.70
2022-09-23T14:18:59.434Z,40.90
2022-09-23T14:21:34.861Z,40.60
2022-09-23T14:24:25.979Z,40.90
2022-09-23T14:26:54.883Z,41.00
2022-09-23T14:29:31.783Z,41.00
2022-09-23T14:32:11.828Z,41.10
2022-09-23T14:34:48.448Z,40.60
2022-09-23T14:37:36.865Z,41.10
2022-09-23T14:40:06.180Z,41.10
2022-09-23T14:42:41.202Z,41.70
2022-09-23T14:45:14.525Z,42.20
2022-09-23T14:47:47.474Z,42.30
2022-09-23T14:50:35.030Z,42.40
2022-09-23T14:53:02.072Z,43.00
2022-09-23T14:55:32.308Z,43.20
2022-09-23T14:58:04.782Z,43.10
2022-09-23T15:00:32.054Z,44.10
2022-09-23T15:03:02.016Z,43.80
2022-09-23T15:05:44.106Z,43.00
2022-09-23T15:08:14.456Z,44.00
2022-09-23T15:10:41.427Z,44.30
2022-09-23T15:13:38.327Z,43.20
2022-09-23T15:16:05.724Z,43.90
2022-09-23T15:18:35.694Z,44.30
2022-09-23T15:21:07.632Z,44.10
2022-09-23T15:23:49.319Z,44.00
2022-09-23T15:26:20.559Z,41.60
2022-09-23T15:28:49.065Z,42.30
2022-09-23T15:31:22.131Z,43.20
2022-09-23T15:33:50.738Z,43.50
2022-09-23T15:36:26.342Z,43.30
2022-09-23T15:38:55.172Z,44.10
2022-09-23T15:41:24.064Z,43.30
2022-09-23T15:43:51.574Z,43.10
2022-09-23T15:46:22.513Z,43.70
2022-09-23T15:49:09.499Z,44.20
2022-09-23T15:51:37.417Z,44.70
2022-09-23T15:54:09.334Z,44.70
2022-09-23T15:56:36.326Z,44.90
2022-09-23T15:59:03.467Z,45.20
2022-09-23T16:01:33.624Z,45.60
2022-09-23T16:04:01.566Z,45.60
2022-09-23T16:06:28.636Z,45.40
2022-09-23T16:08:55.949Z,45.20
2022-09-23T16:11:26.833Z,45.00
2022-09-23T16:13:54.116Z,45.20
2022-09-23T16:16:21.340Z,45.40
2022-09-23T16:18:50.097Z,45.80
2022-09-23T16:21:21.153Z,45.90
2022-09-23T16:23:50.547Z,45.80
2022-09-23T16:26:26.917Z,45.80
2022-09-23T16:28:56.509Z,46.60
2022-09-23T16:31:25.556Z,46.30
2022-09-23T16:33:53.495Z,46.70
2022-09-23T16:36:41.923Z,46.90
2022-09-23T16:39:12.148Z,47.40
2022-09-23T16:41:39.423Z,47.40
2022-09-23T16:44:10.606Z,47.40
2022-09-23T16:46:37.889Z,47.60
2022-09-23T16:49:05.071Z,47.80
2022-09-23T16:51:38.571Z,48.00
2022-09-23T16:54:11.557Z,48.90
2022-09-23T16:56:44.246Z,48.60
2022-09-23T16:59:15.653Z,48.70
2022-09-23T17:02:01.665Z,49.00
2022-09-23T17:04:28.696Z,49.20
2022-09-23T17:06:56.542Z,49.40
2022-09-23T17:09:26.591Z,49.60
2022-09-23T17:12:09.611Z,49.70
2022-09-23T17:14:36.856Z,50.10
2022-09-23T17:17:03.896Z,50.30
2022-09-23T17:19:31.016Z,50.60
2022-09-23T17:21:58.063Z,51.00
2022-09-23T17:24:25.240Z,51.40
2022-09-23T17:26:53.363Z,51.50
2022-09-23T17:29:20.643Z,51.90
2022-09-23T17:31:47.650Z,52.20
2022-09-23T17:34:14.716Z,52.70
2022-09-23T17:36:41.629Z,53.00
2022-09-23T17:39:08.755Z,53.30
2022-09-23T17:41:35.655Z,53.60
2022-09-23T17:44:03.157Z,53.80
2022-09-23T17:46:30.952Z,54.10
2022-09-23T17:48:58.393Z,54.20
2022-09-23T17:51:25.719Z,54.20
2022-09-23T17:53:52.907Z,54.20
2022-09-23T17:56:23.105Z,54.30
2022-09-23T17:58:51.639Z,54.70
2022-09-23T18:01:22.413Z,54.80
2022-09-23T18:03:57.949Z,55.10
2022-09-23T18:06:28.190Z,55.60
2022-09-23T18:08:57.960Z,56.00
2022-09-23T18:11:27.578Z,56.10
2022-09-23T18:14:00.145Z,56.40
2022-09-23T18:16:29.919Z,56.60
2022-09-23T18:18:59.347Z,56.90
2022-09-23T18:21:29.521Z,57.70
2022-09-23T18:24:06.502Z,57.30
2022-09-23T18:26:44.771Z,57.50
2022-09-23T18:29:11.773Z,57.70
2022-09-23T18:31:39.357Z,58.00
2022-09-23T18:34:11.522Z,58.20
2022-09-23T18:36:38.825Z,58.40
2022-09-23T18:39:06.788Z,58.70
2022-09-23T18:41:34.060Z,59.10
2022-09-23T18:44:01.485Z,59.40
2022-09-23T18:46:30.404Z,59.70
2022-09-23T18:49:16.386Z,59.80
2022-09-23T18:51:57.543Z,60.20
2022-09-23T18:54:27.323Z,60.60
2022-09-23T18:56:54.868Z,60.70
2022-09-23T18:59:25.185Z,60.60
2022-09-23T19:01:55.492Z,60.80
2022-09-23T19:04:24.971Z,60.70
2022-09-23T19:06:53.677Z,61.00
2022-09-23T19:09:20.728Z,61.30
2022-09-23T19:11:52.127Z,61.40
2022-09-23T19:14:19.646Z,61.50
2022-09-23T19:16:49.006Z,61.50
2022-09-23T19:19:16.381Z,61.70
2022-09-23T19:21:43.435Z,61.50
2022-09-23T19:24:15.742Z,61.30
2022-09-23T19:26:44.026Z,61.30
2022-09-23T19:29:16.245Z,61.60
2022-09-23T19:31:43.897Z,61.70
2022-09-23T19:34:20.208Z,61.50
2022-09-23T19:36:47.991Z,61.60
2022-09-23T19:39:23.564Z,61.90
2022-09-23T19:41:52.448Z,62.30
2022-09-23T19:44:20.296Z,62.40
2022-09-23T19:46:53.400Z,62.50
2022-09-23T19:49:24.508Z,62.70
2022-09-23T19:51:52.026Z,63.10
2022-09-23T19:54:21.664Z,63.50
2022-09-23T19:56:49.691Z,63.90
2022-09-23T19:59:19.197Z,64.00
2022-09-23T20:01:48.013Z,64.20
2022-09-23T20:04:16.209Z,64.50
2022-09-23T20:06:43.283Z,64.40
2022-09-23T20:09:10.510Z,64.50
2022-09-23T20:11:38.052Z,64.70
2022-09-23T20:14:06.423Z,64.80
2022-09-23T20:16:36.364Z,64.90
2022-09-23T20:19:04.849Z,64.90
2022-09-23T20:21:34.014Z,64.90
2022-09-23T20:24:01.630Z,65.10
2022-09-23T20:26:47.517Z,65.30
2022-09-23T20:29:14.851Z,65.30
2022-09-23T20:31:42.030Z,66.20
2022-09-23T20:34:10.612Z,65.60
2022-09-23T20:36:39.265Z,65.70
2022-09-23T20:39:07.318Z,65.90
2022-09-23T20:41:38.014Z,66.00
2022-09-23T20:44:12.554Z,66.00
2022-09-23T20:46:44.117Z,66.00
2022-09-23T20:49:14.270Z,66.00
2022-09-23T20:51:41.269Z,66.00
2022-09-23T20:54:08.301Z,66.10
2022-09-23T20:56:35.260Z,66.20
2022-09-23T20:59:03.885Z,66.40
2022-09-23T21:01:35.151Z,66.40
2022-09-23T21:04:04.910Z,66.40
2022-09-23T21:06:34.271Z,66.70
2022-09-23T21:09:01.725Z,67.30
2022-09-23T21:11:29.299Z,67.80
2022-09-23T21:13:56.629Z,68.20
2022-09-23T21:16:24.549Z,68.50
2022-09-23T21:18:52.654Z,68.70
2022-09-23T21:21:22.230Z,68.40
2022-09-23T21:23:50.737Z,68.20
2022-09-23T21:26:23.293Z,68.20
2022-09-23T21:28:52.522Z,68.40
2022-09-23T21:31:25.730Z,68.30
2022-09-23T21:33:56.815Z,68.40
2022-09-23T21:36:24.752Z,68.70
2022-09-23T21:38:52.724Z,68.50
2022-09-23T21:41:20.202Z,68.40
2022-09-23T21:43:49.523Z,68.20
2022-09-23T21:46:22.130Z,68.20
2022-09-23T21:48:53.373Z,68.20
2022-09-23T21:51:25.429Z,68.30
2022-09-23T21:53:54.817Z,68.50
2022-09-23T21:56:27.126Z,68.40
2022-09-23T21:58:55.247Z,68.30
2022-09-23T22:01:24.823Z,68.30
2022-09-23T22:03:57.853Z,68.40
2022-09-23T22:06:30.548Z,68.10
2022-09-23T22:09:00.281Z,68.20
2022-09-23T22:11:47.677Z,68.40
2022-09-23T22:14:15.876Z,68.30
2022-09-23T22:16:43.528Z,68.40
2022-09-23T22:19:13.573Z,68.40
2022-09-23T22:21:42.015Z,68.60
2022-09-23T22:24:10.348Z,69.00
2022-09-23T22:26:42.584Z,69.60
2022-09-23T22:29:33.124Z,69.90
2022-09-23T22:32:20.778Z,70.10
2022-09-23T22:34:50.966Z,70.20
2022-09-23T22:37:27.409Z,70.20
2022-09-23T22:39:54.798Z,70.20
2022-09-23T22:42:22.431Z,70.20
2022-09-23T22:44:50.603Z,70.30
2022-09-23T22:47:19.153Z,70.30
2022-09-23T22:49:46.697Z,70.50
2022-09-23T22:52:15.972Z,70.80
2022-09-23T22:54:43.118Z,71.10
2022-09-23T22:57:10.530Z,71.40
2022-09-23T22:59:37.861Z,71.40
2022-09-23T23:02:07.733Z,71.90
2022-09-23T23:04:37.202Z,71.10
2022-09-23T23:07:06.026Z,71.20
2022-09-23T23:09:33.230Z,71.40
2022-09-23T23:12:00.222Z,71.70
2022-09-23T23:14:27.951Z,71.80
2022-09-23T23:16:55.167Z,71.90
2022-09-23T23:19:22.358Z,72.10
2022-09-23T23:21:50.538Z,72.00
2022-09-23T23:24:22.201Z,72.10
2022-09-23T23:26:49.642Z,72.30
2022-09-23T23:29:18.396Z,72.60
2022-09-23T23:31:45.853Z,72.70
2022-09-23T23:34:20.932Z,72.80
2022-09-23T23:36:54.950Z,73.00
2022-09-23T23:39:23.906Z,73.00
2022-09-23T23:41:55.512Z,73.10
2022-09-23T23:44:23.902Z,73.40
2022-09-23T23:46:51.230Z,73.80
2022-09-23T23:49:18.336Z,74.20
2022-09-23T23:51:45.338Z,74.30
2022-09-23T23:54:12.814Z,74.70
2022-09-23T23:56:39.849Z,74.70
2022-09-23T23:59:06.877Z,74.70
